sensor_id;sensor_type;location;lat;lon;timestamp;temperature;humidity
31975;DHT22;18500;43.618;1.474;2023-02-10T06:49:43;-2.30;1.00
31975;DHT22;18500;43.618;1.474;2023-02-10T06:52:09;-2.30;1.00
31975;DHT22;18500;43.618;1.474;2023-02-10T06:54:35;-2.20;1.00
31975;DHT22;18500;43.618;1.474;2023-02-10T06:57:00;-2.20;1.00
31975;DHT22;18500;43.618;1.474;2023-02-10T06:59:26;-2.20;1.00
31975;DHT22;18500;43.618;1.474;2023-02-10T07:01:52;-2.20;1.00
31975;DHT22;18500;43.618;1.474;2023-02-10T07:04:19;-2.20;1.00
31975;DHT22;18500;43.618;1.474;2023-02-10T07:06:44;-2.20;1.00
31975;DHT22;18500;43.618;1.474;2023-02-10T07:09:10;-2.00;1.00
31975;DHT22;18500;43.618;1.474;2023-02-10T07:11:36;-2.20;1.00
31975;DHT22;18500;43.618;1.474;2023-02-10T07:14:01;-2.20;1.00
31975;DHT22;18500;43.618;1.474;2023-02-10T07:16:27;-2.20;1.00
31975;DHT22;18500;43.618;1.474;2023-02-10T07:18:55;-2.10;1.00
31975;DHT22;18500;43.618;1.474;2023-02-10T07:21:21;-2.00;1.00
31975;DHT22;18500;43.618;1.474;2023-02-10T07:23:46;-2.00;1.00
31975;DHT22;18500;43.618;1.474;2023-02-10T07:26:12;-2.00;1.00
31975;DHT22;18500;43.618;1.474;2023-02-10T07:28:38;-2.00;1.00
31975;DHT22;18500;43.618;1.474;2023-02-10T07:31:05;-1.90;1.00
31975;DHT22;18500;43.618;1.474;2023-02-10T07:33:30;-1.90;1.00
31975;DHT22;18500;43.618;1.474;2023-02-10T07:36:00;-1.90;1.00
31975;DHT22;18500;43.618;1.474;2023-02-10T07:38:27;-1.80;1.00
31975;DHT22;18500;43.618;1.474;2023-02-10T07:40:53;-1.70;1.00
31975;DHT22;18500;43.618;1.474;2023-02-10T07:43:19;-1.70;1.00
31975;DHT22;18500;43.618;1.474;2023-02-10T07:45:44;-1.50;1.00
31975;DHT22;18500;43.618;1.474;2023-02-10T07:48:10;-1.40;1.00
31975;DHT22;18500;43.618;1.474;2023-02-10T07:50:36;-1.30;1.00
31975;DHT22;18500;43.618;1.474;2023-02-10T07:53:01;-1.20;1.00
31975;DHT22;18500;43.618;1.474;2023-02-10T07:55:27;-1.10;1.00
31975;DHT22;18500;43.618;1.474;2023-02-10T07:57:53;-1.10;1.00
31975;DHT22;18500;43.618;1.474;2023-02-10T08:00:18;-1.00;1.00
31975;DHT22;18500;43.618;1.474;2023-02-10T08:02:44;-0.90;1.00
31975;DHT22;18500;43.618;1.474;2023-02-10T08:05:10;-0.90;1.00
31975;DHT22;18500;43.618;1.474;2023-02-10T08:07:36;-0.80;1.00
31975;DHT22;18500;43.618;1.474;2023-02-10T08:10:03;-0.80;1.00
31975;DHT22;18500;43.618;1.474;2023-02-10T08:12:28;-0.70;1.00
31975;DHT22;18500;43.618;1.474;2023-02-10T08:14:54;-0.60;1.00
31975;DHT22;18500;43.618;1.474;2023-02-10T08:17:20;-0.60;1.00
31975;DHT22;18500;43.618;1.474;2023-02-10T08:19:45;-0.60;1.00
31975;DHT22;18500;43.618;1.474;2023-02-10T08:22:11;-0.60;1.00
31975;DHT22;18500;43.618;1.474;2023-02-10T08:24:37;-0.70;1.00
31975;DHT22;18500;43.618;1.474;2023-02-10T08:27:04;-0.70;1.00
31975;DHT22;18500;43.618;1.474;2023-02-10T08:29:30;-0.70;1.00
31975;DHT22;18500;43.618;1.474;2023-02-10T08:31:56;-0.60;1.00
31975;DHT22;18500;43.618;1.474;2023-02-10T08:34:21;-0.60;1.00
31975;DHT22;18500;43.618;1.474;2023-02-10T08:36:47;-0.60;1.00
31975;DHT22;18500;43.618;1.474;2023-02-10T08:39:14;-0.50;1.00
31975;DHT22;18500;43.618;1.474;2023-02-10T08:41:40;-0.40;1.00
31975;DHT22;18500;43.618;1.474;2023-02-10T08:44:06;-0.40;1.00
31975;DHT22;18500;43.618;1.474;2023-02-10T08:46:32;-0.30;1.00
31975;DHT22;18500;43.618;1.474;2023-02-10T08:48:58;-0.20;1.00
31975;DHT22;18500;43.618;1.474;2023-02-10T08:51:27;-0.20;1.00
31975;DHT22;18500;43.618;1.474;2023-02-10T08:53:53;0.00;1.00
31975;DHT22;18500;43.618;1.474;2023-02-10T08:56:21;0.00;1.00
31975;DHT22;18500;43.618;1.474;2023-02-10T08:58:47;0.00;1.00
31975;DHT22;18500;43.618;1.474;2023-02-10T09:01:16;0.10;1.00
31975;DHT22;18500;43.618;1.474;2023-02-10T09:03:42;0.20;1.00
31975;DHT22;18500;43.618;1.474;2023-02-10T09:06:30;0.30;1.00
31975;DHT22;18500;43.618;1.474;2023-02-10T09:08:56;0.40;1.00
31975;DHT22;18500;43.618;1.474;2023-02-10T09:11:23;0.40;1.00
31975;DHT22;18500;43.618;1.474;2023-02-10T09:13:53;0.60;1.00
31975;DHT22;18500;43.618;1.474;2023-02-10T09:16:19;0.70;1.00
31975;DHT22;18500;43.618;1.474;2023-02-10T09:18:45;1.00;1.00
31975;DHT22;18500;43.618;1.474;2023-02-10T09:21:11;1.00;1.00
31975;DHT22;18500;43.618;1.474;2023-02-10T09:23:37;1.10;1.00
31975;DHT22;18500;43.618;1.474;2023-02-10T09:26:02;1.20;1.00
31975;DHT22;18500;43.618;1.474;2023-02-10T09:28:28;1.20;1.00
31975;DHT22;18500;43.618;1.474;2023-02-10T09:30:54;1.30;1.00
31975;DHT22;18500;43.618;1.474;2023-02-10T09:33:20;1.50;1.00
31975;DHT22;18500;43.618;1.474;2023-02-10T09:35:46;1.60;1.00
31975;DHT22;18500;43.618;1.474;2023-02-10T09:38:13;1.80;1.00
31975;DHT22;18500;43.618;1.474;2023-02-10T09:52:07;2.60;1.00
31975;DHT22;18500;43.618;1.474;2023-02-10T09:54:36;2.80;1.00
31975;DHT22;18500;43.618;1.474;2023-02-10T09:57:07;2.90;1.00
31975;DHT22;18500;43.618;1.474;2023-02-10T09:59:36;3.00;1.00
31975;DHT22;18500;43.618;1.474;2023-02-10T10:02:31;3.20;1.00
31975;DHT22;18500;43.618;1.474;2023-02-10T10:04:59;3.60;1.00
31975;DHT22;18500;43.618;1.474;2023-02-10T10:07:36;3.90;1.00
31975;DHT22;18500;43.618;1.474;2023-02-10T10:12:35;4.10;1.00
31975;DHT22;18500;43.618;1.474;2023-02-10T10:15:01;4.20;1.00
31975;DHT22;18500;43.618;1.474;2023-02-10T10:21:10;4.30;1.00
31975;DHT22;18500;43.618;1.474;2023-02-10T10:29:53;4.30;1.00
31975;DHT22;18500;43.618;1.474;2023-02-10T10:32:35;4.60;1.00
31975;DHT22;18500;43.618;1.474;2023-02-10T10:35:16;4.40;1.00
31975;DHT22;18500;43.618;1.474;2023-02-10T10:37:42;4.30;1.00
31975;DHT22;18500;43.618;1.474;2023-02-10T10:40:13;4.50;1.00
31975;DHT22;18500;43.618;1.474;2023-02-10T10:42:48;4.60;1.00
31975;DHT22;18500;43.618;1.474;2023-02-10T10:45:22;4.50;1.00
31975;DHT22;18500;43.618;1.474;2023-02-10T10:48:09;4.50;1.00
31975;DHT22;18500;43.618;1.474;2023-02-10T10:50:37;4.70;1.00
31975;DHT22;18500;43.618;1.474;2023-02-10T10:53:11;5.10;1.00
31975;DHT22;18500;43.618;1.474;2023-02-10T10:55:41;5.20;1.00
31975;DHT22;18500;43.618;1.474;2023-02-10T11:00:51;5.60;1.00
31975;DHT22;18500;43.618;1.474;2023-02-10T11:03:17;5.80;1.00
31975;DHT22;18500;43.618;1.474;2023-02-10T11:06:05;5.70;1.00
31975;DHT22;18500;43.618;1.474;2023-02-10T11:08:36;5.90;1.00
31975;DHT22;18500;43.618;1.474;2023-02-10T11:11:06;6.30;1.00
31975;DHT22;18500;43.618;1.474;2023-02-10T11:13:37;6.50;1.00
31975;DHT22;18500;43.618;1.474;2023-02-10T11:16:05;6.50;1.00
31975;DHT22;18500;43.618;1.474;2023-02-10T11:18:32;6.50;1.00
31975;DHT22;18500;43.618;1.474;2023-02-10T11:21:00;6.50;1.00
31975;DHT22;18500;43.618;1.474;2023-02-10T11:23:27;6.50;1.00
31975;DHT22;18500;43.618;1.474;2023-02-10T11:26:04;6.50;1.00
31975;DHT22;18500;43.618;1.474;2023-02-10T11:28:33;6.60;1.00
31975;DHT22;18500;43.618;1.474;2023-02-10T11:31:04;6.80;1.00
31975;DHT22;18500;43.618;1.474;2023-02-10T11:33:33;6.80;1.00
31975;DHT22;18500;43.618;1.474;2023-02-10T11:36:08;7.00;1.00
31975;DHT22;18500;43.618;1.474;2023-02-10T11:38:38;7.10;1.00
31975;DHT22;18500;43.618;1.474;2023-02-10T11:41:06;7.20;1.00
31975;DHT22;18500;43.618;1.474;2023-02-10T11:43:44;7.20;1.00
31975;DHT22;18500;43.618;1.474;2023-02-10T11:46:20;7.20;1.00
31975;DHT22;18500;43.618;1.474;2023-02-10T11:48:57;7.40;1.00
31975;DHT22;18500;43.618;1.474;2023-02-10T11:51:23;7.50;1.00
31975;DHT22;18500;43.618;1.474;2023-02-10T11:53:48;7.70;1.00
31975;DHT22;18500;43.618;1.474;2023-02-10T11:56:36;7.60;1.00
31975;DHT22;18500;43.618;1.474;2023-02-10T11:59:37;7.80;1.00
31975;DHT22;18500;43.618;1.474;2023-02-10T12:12:47;8.00;1.00
31975;DHT22;18500;43.618;1.474;2023-02-10T12:18:27;8.10;1.00
31975;DHT22;18500;43.618;1.474;2023-02-10T12:34:48;8.50;1.00
31975;DHT22;18500;43.618;1.474;2023-02-10T12:40:34;8.70;1.00
31975;DHT22;18500;43.618;1.474;2023-02-10T12:54:36;15.60;1.00
31975;DHT22;18500;43.618;1.474;2023-02-10T12:57:29;17.00;1.00
31975;DHT22;18500;43.618;1.474;2023-02-10T13:03:14;18.50;1.00
31975;DHT22;18500;43.618;1.474;2023-02-10T13:05:59;19.70;1.00
31975;DHT22;18500;43.618;1.474;2023-02-10T13:08:43;19.50;1.00
31975;DHT22;18500;43.618;1.474;2023-02-10T13:11:17;20.30;1.00
31975;DHT22;18500;43.618;1.474;2023-02-10T13:13:46;19.60;1.00
31975;DHT22;18500;43.618;1.474;2023-02-10T13:16:18;19.20;1.00
31975;DHT22;18500;43.618;1.474;2023-02-10T13:18:54;15.60;1.00
31975;DHT22;18500;43.618;1.474;2023-02-10T13:21:29;12.90;1.00
31975;DHT22;18500;43.618;1.474;2023-02-10T13:24:39;11.80;1.00
31975;DHT22;18500;43.618;1.474;2023-02-10T13:35:21;10.20;1.00
31975;DHT22;18500;43.618;1.474;2023-02-10T13:37:50;10.20;1.00
31975;DHT22;18500;43.618;1.474;2023-02-10T13:42:52;10.20;1.00
31975;DHT22;18500;43.618;1.474;2023-02-10T13:45:30;10.50;1.00
31975;DHT22;18500;43.618;1.474;2023-02-10T13:48:00;10.40;1.00
31975;DHT22;18500;43.618;1.474;2023-02-10T13:50:42;10.20;1.00
31975;DHT22;18500;43.618;1.474;2023-02-10T13:58:58;10.50;1.00
31975;DHT22;18500;43.618;1.474;2023-02-10T14:04:08;10.50;1.00
31975;DHT22;18500;43.618;1.474;2023-02-10T14:06:52;10.30;1.00
31975;DHT22;18500;43.618;1.474;2023-02-10T14:09:33;10.50;1.00
31975;DHT22;18500;43.618;1.474;2023-02-10T14:12:18;10.50;1.00
31975;DHT22;18500;43.618;1.474;2023-02-10T14:14:46;10.40;1.00
31975;DHT22;18500;43.618;1.474;2023-02-10T14:19:40;10.40;1.00
31975;DHT22;18500;43.618;1.474;2023-02-10T14:22:26;10.50;1.00
31975;DHT22;18500;43.618;1.474;2023-02-10T14:24:59;10.70;1.00
31975;DHT22;18500;43.618;1.474;2023-02-10T14:27:26;10.60;1.00
31975;DHT22;18500;43.618;1.474;2023-02-10T14:29:56;10.40;1.00
31975;DHT22;18500;43.618;1.474;2023-02-10T14:32:24;10.40;1.00
31975;DHT22;18500;43.618;1.474;2023-02-10T14:35:16;10.50;1.00
31975;DHT22;18500;43.618;1.474;2023-02-10T14:37:52;10.60;1.00
31975;DHT22;18500;43.618;1.474;2023-02-10T14:40:19;10.70;1.00
31975;DHT22;18500;43.618;1.474;2023-02-10T14:42:45;10.70;1.00
31975;DHT22;18500;43.618;1.474;2023-02-10T14:45:22;10.70;1.00
31975;DHT22;18500;43.618;1.474;2023-02-10T14:47:50;10.60;1.00
31975;DHT22;18500;43.618;1.474;2023-02-10T14:50:27;10.50;1.00
31975;DHT22;18500;43.618;1.474;2023-02-10T14:52:53;10.40;1.00
31975;DHT22;18500;43.618;1.474;2023-02-10T14:55:28;10.40;1.00
31975;DHT22;18500;43.618;1.474;2023-02-10T14:57:57;10.40;1.00
31975;DHT22;18500;43.618;1.474;2023-02-10T15:00:24;10.30;1.00
31975;DHT22;18500;43.618;1.474;2023-02-10T15:02:56;10.20;1.00
31975;DHT22;18500;43.618;1.474;2023-02-10T15:05:22;10.30;1.00
31975;DHT22;18500;43.618;1.474;2023-02-10T15:07:52;10.40;1.00
31975;DHT22;18500;43.618;1.474;2023-02-10T15:10:31;10.40;1.00
31975;DHT22;18500;43.618;1.474;2023-02-10T15:12:58;10.40;1.00
31975;DHT22;18500;43.618;1.474;2023-02-10T15:15:34;10.30;1.00
31975;DHT22;18500;43.618;1.474;2023-02-10T15:18:08;10.30;1.00
31975;DHT22;18500;43.618;1.474;2023-02-10T15:20:36;10.20;1.00
31975;DHT22;18500;43.618;1.474;2023-02-10T15:23:03;10.20;1.00
31975;DHT22;18500;43.618;1.474;2023-02-10T15:28:12;10.00;1.00
31975;DHT22;18500;43.618;1.474;2023-02-10T15:38:23;9.80;1.00
31975;DHT22;18500;43.618;1.474;2023-02-10T15:40:55;9.70;1.00
31975;DHT22;18500;43.618;1.474;2023-02-10T15:43:30;9.80;1.00
31975;DHT22;18500;43.618;1.474;2023-02-10T15:46:26;9.90;1.00
31975;DHT22;18500;43.618;1.474;2023-02-10T15:48:53;10.30;1.00
31975;DHT22;18500;43.618;1.474;2023-02-10T15:51:45;10.60;1.00
31975;DHT22;18500;43.618;1.474;2023-02-10T15:54:15;10.30;1.00
31975;DHT22;18500;43.618;1.474;2023-02-10T15:56:41;10.10;1.00
31975;DHT22;18500;43.618;1.474;2023-02-10T15:59:14;9.90;1.00
31975;DHT22;18500;43.618;1.474;2023-02-10T16:01:40;9.60;1.00
31975;DHT22;18500;43.618;1.474;2023-02-10T16:04:06;9.60;1.00
31975;DHT22;18500;43.618;1.474;2023-02-10T16:06:31;9.60;1.00
31975;DHT22;18500;43.618;1.474;2023-02-10T16:08:57;9.60;1.00
31975;DHT22;18500;43.618;1.474;2023-02-10T16:11:23;9.50;1.00
31975;DHT22;18500;43.618;1.474;2023-02-10T16:13:49;9.40;1.00
31975;DHT22;18500;43.618;1.474;2023-02-10T16:16:15;9.40;1.00
31975;DHT22;18500;43.618;1.474;2023-02-10T16:18:42;9.20;1.00
31975;DHT22;18500;43.618;1.474;2023-02-10T16:21:11;9.10;1.00
31975;DHT22;18500;43.618;1.474;2023-02-10T16:23:40;9.10;1.00
31975;DHT22;18500;43.618;1.474;2023-02-10T16:26:05;9.20;1.00
31975;DHT22;18500;43.618;1.474;2023-02-10T16:28:31;9.20;1.00
31975;DHT22;18500;43.618;1.474;2023-02-10T16:30:57;9.20;1.00
31975;DHT22;18500;43.618;1.474;2023-02-10T16:33:23;9.10;1.00
31975;DHT22;18500;43.618;1.474;2023-02-10T16:35:48;9.10;1.00
31975;DHT22;18500;43.618;1.474;2023-02-10T16:38:14;9.20;1.00
31975;DHT22;18500;43.618;1.474;2023-02-10T16:40:40;9.20;1.00
31975;DHT22;18500;43.618;1.474;2023-02-10T16:43:06;9.30;1.00
31975;DHT22;18500;43.618;1.474;2023-02-10T16:45:33;9.20;1.00
31975;DHT22;18500;43.618;1.474;2023-02-10T16:48:00;9.10;1.00
31975;DHT22;18500;43.618;1.474;2023-02-10T16:50:31;9.00;1.00
31975;DHT22;18500;43.618;1.474;2023-02-10T16:52:57;8.70;1.00
31975;DHT22;18500;43.618;1.474;2023-02-10T16:55:23;8.50;1.00
31975;DHT22;18500;43.618;1.474;2023-02-10T16:57:50;8.00;1.00
31975;DHT22;18500;43.618;1.474;2023-02-10T17:00:17;7.80;1.00
31975;DHT22;18500;43.618;1.474;2023-02-10T17:02:43;7.50;1.00
31975;DHT22;18500;43.618;1.474;2023-02-10T17:05:10;7.30;1.00
31975;DHT22;18500;43.618;1.474;2023-02-10T17:07:37;7.00;1.00
31975;DHT22;18500;43.618;1.474;2023-02-10T17:10:12;6.80;1.00
31975;DHT22;18500;43.618;1.474;2023-02-10T17:12:38;6.70;1.00
31975;DHT22;18500;43.618;1.474;2023-02-10T17:15:04;6.50;1.00
31975;DHT22;18500;43.618;1.474;2023-02-10T17:17:30;6.30;1.00
31975;DHT22;18500;43.618;1.474;2023-02-10T17:19:56;6.20;1.00
31975;DHT22;18500;43.618;1.474;2023-02-10T17:22:24;6.10;1.00
31975;DHT22;18500;43.618;1.474;2023-02-10T17:24:49;6.00;1.00
31975;DHT22;18500;43.618;1.474;2023-02-10T17:27:16;6.00;1.00
31975;DHT22;18500;43.618;1.474;2023-02-10T17:29:42;6.10;1.00
31975;DHT22;18500;43.618;1.474;2023-02-10T17:32:07;6.10;1.00
31975;DHT22;18500;43.618;1.474;2023-02-10T17:34:33;6.10;1.00
31975;DHT22;18500;43.618;1.474;2023-02-10T17:37:04;6.00;1.00
31975;DHT22;18500;43.618;1.474;2023-02-10T17:39:31;5.90;1.00
31975;DHT22;18500;43.618;1.474;2023-02-10T17:42:06;5.90;1.00
31975;DHT22;18500;43.618;1.474;2023-02-10T17:44:32;6.00;1.00
31975;DHT22;18500;43.618;1.474;2023-02-10T17:46:59;6.00;1.00
31975;DHT22;18500;43.618;1.474;2023-02-10T17:49:27;5.90;1.00
31975;DHT22;18500;43.618;1.474;2023-02-10T17:51:53;5.80;1.00
31975;DHT22;18500;43.618;1.474;2023-02-10T17:54:19;5.70;1.00
31975;DHT22;18500;43.618;1.474;2023-02-10T17:56:46;5.50;1.00
31975;DHT22;18500;43.618;1.474;2023-02-10T17:59:11;5.50;1.00
31975;DHT22;18500;43.618;1.474;2023-02-10T18:01:38;5.40;1.00
31975;DHT22;18500;43.618;1.474;2023-02-10T18:04:04;5.20;1.00
31975;DHT22;18500;43.618;1.474;2023-02-10T18:06:30;5.20;1.00
31975;DHT22;18500;43.618;1.474;2023-02-10T18:08:57;5.00;1.00
31975;DHT22;18500;43.618;1.474;2023-02-10T18:11:23;4.80;1.00
31975;DHT22;18500;43.618;1.474;2023-02-10T18:13:49;4.70;1.00
31975;DHT22;18500;43.618;1.474;2023-02-10T18:16:15;4.60;1.00
31975;DHT22;18500;43.618;1.474;2023-02-10T18:18:42;4.40;1.00
31975;DHT22;18500;43.618;1.474;2023-02-10T18:21:17;4.30;1.00
31975;DHT22;18500;43.618;1.474;2023-02-10T18:23:44;4.20;1.00
31975;DHT22;18500;43.618;1.474;2023-02-10T18:26:11;4.10;1.00
31975;DHT22;18500;43.618;1.474;2023-02-10T18:28:37;4.00;1.00
31975;DHT22;18500;43.618;1.474;2023-02-10T18:31:03;3.90;1.00
31975;DHT22;18500;43.618;1.474;2023-02-10T18:33:30;3.90;1.00
31975;DHT22;18500;43.618;1.474;2023-02-10T18:35:56;3.80;1.00
31975;DHT22;18500;43.618;1.474;2023-02-10T18:38:22;3.80;1.00
31975;DHT22;18500;43.618;1.474;2023-02-10T18:40:48;3.70;1.00
31975;DHT22;18500;43.618;1.474;2023-02-10T18:43:18;3.60;1.00
31975;DHT22;18500;43.618;1.474;2023-02-10T18:45:50;3.60;1.00
31975;DHT22;18500;43.618;1.474;2023-02-10T18:48:16;3.50;1.00
31975;DHT22;18500;43.618;1.474;2023-02-10T18:50:48;3.50;1.00
31975;DHT22;18500;43.618;1.474;2023-02-10T18:53:17;3.40;1.00
31975;DHT22;18500;43.618;1.474;2023-02-10T18:55:44;3.40;1.00
31975;DHT22;18500;43.618;1.474;2023-02-10T18:58:14;3.40;1.00
31975;DHT22;18500;43.618;1.474;2023-02-10T19:00:41;3.40;1.00
31975;DHT22;18500;43.618;1.474;2023-02-10T19:03:10;3.30;1.00
31975;DHT22;18500;43.618;1.474;2023-02-10T19:05:36;3.30;1.00
31975;DHT22;18500;43.618;1.474;2023-02-10T19:08:02;3.20;1.00
31975;DHT22;18500;43.618;1.474;2023-02-10T19:10:28;3.20;1.00
31975;DHT22;18500;43.618;1.474;2023-02-10T19:12:54;3.10;1.00
31975;DHT22;18500;43.618;1.474;2023-02-10T19:15:19;3.10;1.00
31975;DHT22;18500;43.618;1.474;2023-02-10T19:17:45;3.10;1.00
31975;DHT22;18500;43.618;1.474;2023-02-10T19:20:11;3.10;1.00
31975;DHT22;18500;43.618;1.474;2023-02-10T19:22:37;3.20;1.00
31975;DHT22;18500;43.618;1.474;2023-02-10T19:25:03;3.30;1.00
31975;DHT22;18500;43.618;1.474;2023-02-10T19:27:29;3.30;1.00
31975;DHT22;18500;43.618;1.474;2023-02-10T19:29:55;3.40;1.00
31975;DHT22;18500;43.618;1.474;2023-02-10T19:32:20;3.40;1.00
31975;DHT22;18500;43.618;1.474;2023-02-10T19:34:46;3.40;1.00
31975;DHT22;18500;43.618;1.474;2023-02-10T19:37:13;3.30;1.00
31975;DHT22;18500;43.618;1.474;2023-02-10T19:39:39;3.20;1.00
31975;DHT22;18500;43.618;1.474;2023-02-10T19:42:04;3.10;1.00
31975;DHT22;18500;43.618;1.474;2023-02-10T19:44:30;3.10;1.00
31975;DHT22;18500;43.618;1.474;2023-02-10T19:46:57;3.10;1.00
31975;DHT22;18500;43.618;1.474;2023-02-10T19:49:23;3.10;1.00
31975;DHT22;18500;43.618;1.474;2023-02-10T19:51:49;3.10;1.00
31975;DHT22;18500;43.618;1.474;2023-02-10T19:54:16;3.00;1.00
31975;DHT22;18500;43.618;1.474;2023-02-10T19:56:43;2.90;1.00
31975;DHT22;18500;43.618;1.474;2023-02-10T19:59:09;2.90;1.00
31975;DHT22;18500;43.618;1.474;2023-02-10T20:01:35;2.90;1.00
31975;DHT22;18500;43.618;1.474;2023-02-10T20:04:01;2.90;1.00
31975;DHT22;18500;43.618;1.474;2023-02-10T20:06:39;2.80;1.00
31975;DHT22;18500;43.618;1.474;2023-02-10T20:09:05;2.70;1.00
31975;DHT22;18500;43.618;1.474;2023-02-10T20:11:31;2.70;1.00
31975;DHT22;18500;43.618;1.474;2023-02-10T20:13:57;2.60;1.00
31975;DHT22;18500;43.618;1.474;2023-02-10T20:16:23;2.60;1.00
31975;DHT22;18500;43.618;1.474;2023-02-10T20:18:49;2.40;1.00
31975;DHT22;18500;43.618;1.474;2023-02-10T20:21:15;2.30;1.00
31975;DHT22;18500;43.618;1.474;2023-02-10T20:23:41;2.30;1.00
31975;DHT22;18500;43.618;1.474;2023-02-10T20:26:09;2.20;1.00
31975;DHT22;18500;43.618;1.474;2023-02-10T20:28:35;2.20;1.00
31975;DHT22;18500;43.618;1.474;2023-02-10T20:31:02;2.10;1.00
31975;DHT22;18500;43.618;1.474;2023-02-10T20:33:28;2.00;1.00
31975;DHT22;18500;43.618;1.474;2023-02-10T20:36:00;2.00;1.00
31975;DHT22;18500;43.618;1.474;2023-02-10T20:38:28;1.90;1.00
31975;DHT22;18500;43.618;1.474;2023-02-10T20:40:58;1.90;1.00
31975;DHT22;18500;43.618;1.474;2023-02-10T20:43:24;1.80;1.00
31975;DHT22;18500;43.618;1.474;2023-02-10T20:45:50;1.70;1.00
31975;DHT22;18500;43.618;1.474;2023-02-10T20:48:16;1.70;1.00
31975;DHT22;18500;43.618;1.474;2023-02-10T20:50:45;1.60;1.00
31975;DHT22;18500;43.618;1.474;2023-02-10T20:53:11;1.60;1.00
31975;DHT22;18500;43.618;1.474;2023-02-10T20:55:37;1.50;1.00
31975;DHT22;18500;43.618;1.474;2023-02-10T20:58:03;1.50;1.00
31975;DHT22;18500;43.618;1.474;2023-02-10T21:00:29;1.50;1.00
31975;DHT22;18500;43.618;1.474;2023-02-10T21:02:58;1.40;1.00
31975;DHT22;18500;43.618;1.474;2023-02-10T21:05:24;1.40;1.00
31975;DHT22;18500;43.618;1.474;2023-02-10T21:07:51;1.30;1.00
31975;DHT22;18500;43.618;1.474;2023-02-10T21:10:18;1.30;1.00
31975;DHT22;18500;43.618;1.474;2023-02-10T21:12:43;1.30;1.00
31975;DHT22;18500;43.618;1.474;2023-02-10T21:15:14;1.20;1.00
31975;DHT22;18500;43.618;1.474;2023-02-10T21:17:40;1.30;1.00
31975;DHT22;18500;43.618;1.474;2023-02-10T21:20:06;1.20;1.00
31975;DHT22;18500;43.618;1.474;2023-02-10T21:22:32;1.10;1.00
31975;DHT22;18500;43.618;1.474;2023-02-10T21:25:00;1.10;1.00
31975;DHT22;18500;43.618;1.474;2023-02-10T21:27:26;1.00;1.00
31975;DHT22;18500;43.618;1.474;2023-02-10T21:29:52;0.90;1.00
31975;DHT22;18500;43.618;1.474;2023-02-10T21:32:18;0.90;1.00
31975;DHT22;18500;43.618;1.474;2023-02-10T21:34:45;0.90;1.00
31975;DHT22;18500;43.618;1.474;2023-02-10T21:37:11;0.90;1.00
31975;DHT22;18500;43.618;1.474;2023-02-10T21:39:37;1.00;1.00
31975;DHT22;18500;43.618;1.474;2023-02-10T21:42:03;1.00;1.00
31975;DHT22;18500;43.618;1.474;2023-02-10T21:44:29;1.00;1.00
31975;DHT22;18500;43.618;1.474;2023-02-10T21:46:58;1.10;1.00
31975;DHT22;18500;43.618;1.474;2023-02-10T21:49:26;1.10;1.00
31975;DHT22;18500;43.618;1.474;2023-02-10T21:51:53;1.10;1.00
31975;DHT22;18500;43.618;1.474;2023-02-10T21:54:20;1.10;1.00
31975;DHT22;18500;43.618;1.474;2023-02-10T21:56:47;1.10;1.00
31975;DHT22;18500;43.618;1.474;2023-02-10T21:59:13;1.20;1.00
31975;DHT22;18500;43.618;1.474;2023-02-10T22:01:39;1.20;1.00
31975;DHT22;18500;43.618;1.474;2023-02-10T22:04:05;1.10;1.00
31975;DHT22;18500;43.618;1.474;2023-02-10T22:06:35;1.10;1.00
31975;DHT22;18500;43.618;1.474;2023-02-10T22:09:02;1.10;1.00
31975;DHT22;18500;43.618;1.474;2023-02-10T22:11:29;1.20;1.00
31975;DHT22;18500;43.618;1.474;2023-02-10T22:13:55;1.20;1.00
31975;DHT22;18500;43.618;1.474;2023-02-10T22:16:21;1.20;1.00
31975;DHT22;18500;43.618;1.474;2023-02-10T22:18:47;1.20;1.00
31975;DHT22;18500;43.618;1.474;2023-02-10T22:21:17;1.10;1.00
31975;DHT22;18500;43.618;1.474;2023-02-10T22:23:43;1.10;1.00
31975;DHT22;18500;43.618;1.474;2023-02-10T22:26:11;1.00;1.00
31975;DHT22;18500;43.618;1.474;2023-02-10T22:28:37;1.00;1.00
31975;DHT22;18500;43.618;1.474;2023-02-10T22:31:06;0.90;1.00
31975;DHT22;18500;43.618;1.474;2023-02-10T22:33:32;0.90;1.00
31975;DHT22;18500;43.618;1.474;2023-02-10T22:36:02;0.70;1.00
31975;DHT22;18500;43.618;1.474;2023-02-10T22:38:28;0.60;1.00
31975;DHT22;18500;43.618;1.474;2023-02-10T22:40:54;0.60;1.00
31975;DHT22;18500;43.618;1.474;2023-02-10T22:43:19;0.50;1.00
31975;DHT22;18500;43.618;1.474;2023-02-10T22:45:49;0.40;1.00
31975;DHT22;18500;43.618;1.474;2023-02-10T22:48:15;0.30;1.00
31975;DHT22;18500;43.618;1.474;2023-02-10T22:50:40;0.30;1.00
31975;DHT22;18500;43.618;1.474;2023-02-10T22:53:06;0.20;1.00
31975;DHT22;18500;43.618;1.474;2023-02-10T22:55:31;0.20;1.00
31975;DHT22;18500;43.618;1.474;2023-02-10T22:57:57;0.20;1.00
31975;DHT22;18500;43.618;1.474;2023-02-10T23:00:25;0.10;1.00
31975;DHT22;18500;43.618;1.474;2023-02-10T23:02:52;0.10;1.00
31975;DHT22;18500;43.618;1.474;2023-02-10T23:05:18;0.10;1.00
31975;DHT22;18500;43.618;1.474;2023-02-10T23:07:44;0.00;1.00
31975;DHT22;18500;43.618;1.474;2023-02-10T23:10:09;-0.10;1.00
31975;DHT22;18500;43.618;1.474;2023-02-10T23:12:36;-0.10;1.00
31975;DHT22;18500;43.618;1.474;2023-02-10T23:15:03;-0.20;1.00
31975;DHT22;18500;43.618;1.474;2023-02-10T23:17:28;-0.20;1.00
31975;DHT22;18500;43.618;1.474;2023-02-10T23:19:54;-0.20;1.00
31975;DHT22;18500;43.618;1.474;2023-02-10T23:22:20;-0.30;1.00
31975;DHT22;18500;43.618;1.474;2023-02-10T23:24:47;-0.30;1.00
31975;DHT22;18500;43.618;1.474;2023-02-10T23:27:14;-0.20;1.00
31975;DHT22;18500;43.618;1.474;2023-02-10T23:29:40;-0.10;1.00
31975;DHT22;18500;43.618;1.474;2023-02-10T23:32:06;0.00;1.00
31975;DHT22;18500;43.618;1.474;2023-02-10T23:34:31;-0.10;1.00
31975;DHT22;18500;43.618;1.474;2023-02-10T23:36:57;0.00;1.00
31975;DHT22;18500;43.618;1.474;2023-02-10T23:39:22;0.00;1.00
31975;DHT22;18500;43.618;1.474;2023-02-10T23:41:48;0.00;1.00
31975;DHT22;18500;43.618;1.474;2023-02-10T23:44:15;0.10;1.00
31975;DHT22;18500;43.618;1.474;2023-02-10T23:46:41;0.10;1.00
31975;DHT22;18500;43.618;1.474;2023-02-10T23:49:08;0.00;1.00
31975;DHT22;18500;43.618;1.474;2023-02-10T23:51:33;-0.10;1.00
31975;DHT22;18500;43.618;1.474;2023-02-10T23:53:59;-0.10;1.00
31975;DHT22;18500;43.618;1.474;2023-02-10T23:56:25;-0.10;1.00
31975;DHT22;18500;43.618;1.474;2023-02-10T23:58:52;-0.10;1.00
